Time;durP1;ratioP1;P1;durP2;ratioP2;P2;SDS_P1;SDS_P2;PMS_P1;PMS_P2;Temp;Humidity;BMP_temperature;BMP_pressure;BME280_temperature;BME280_humidity;BME280_pressure;Samples;Min_cycle;Max_cycle;Signal;HPM_P1;HPM_P2
2022/12/09 00:01:53;;;;;;;2.08;1.17;;;;;;;1.46;100.00;101064.25;10486306;28;20060;-83
2022/12/09 00:06:55;;;;;;;0.68;0.52;;;;;;;1.49;100.00;101063.63;10491673;28;20053;-83
2022/12/09 00:11:57;;;;;;;1.05;0.85;;;;;;;1.42;100.00;101057.25;10485657;28;20044;-83
2022/12/09 00:16:58;;;;;;;0.57;0.57;;;;;;;1.42;100.00;101053.03;10485694;28;20527;-84
2022/12/09 00:22:01;;;;;;;0.30;0.30;;;;;;;1.31;100.00;101058.19;10485898;28;20411;-83
2022/12/09 00:27:05;;;;;;;1.90;1.17;;;;;;;1.19;100.00;101054.06;10485435;28;20048;-83
2022/12/09 00:32:08;;;;;;;0.15;0.15;;;;;;;1.16;100.00;101064.00;10485598;28;20051;-84
2022/12/09 00:37:10;;;;;;;0.25;0.22;;;;;;;1.10;100.00;101058.53;10485037;28;20071;-83
2022/12/09 00:42:11;;;;;;;0.52;0.52;;;;;;;1.05;100.00;101060.75;10503062;28;20040;-81
2022/12/09 00:47:14;;;;;;;1.80;1.45;;;;;;;1.04;100.00;101060.66;10484561;28;20083;-81
2022/12/09 00:52:16;;;;;;;0.50;0.50;;;;;;;1.06;100.00;101070.13;10525990;28;20044;-82
2022/12/09 00:57:18;;;;;;;1.60;0.90;;;;;;;0.98;100.00;101067.88;10491842;28;20048;-81
2022/12/09 01:02:20;;;;;;;0.82;0.65;;;;;;;1.11;100.00;101078.06;10477927;28;20045;-82
2022/12/09 01:07:22;;;;;;;1.50;1.40;;;;;;;1.13;100.00;101084.13;10482673;28;20043;-81
2022/12/09 01:12:24;;;;;;;1.92;1.15;;;;;;;1.25;100.00;101090.00;10482080;28;20040;-82
2022/12/09 01:17:26;;;;;;;4.03;1.90;;;;;;;1.29;100.00;101095.28;10478106;28;20109;-82
2022/12/09 01:22:28;;;;;;;1.88;0.90;;;;;;;1.34;100.00;101093.94;10470540;28;20057;-82
2022/12/09 01:27:31;;;;;;;5.53;1.98;;;;;;;1.47;100.00;101104.13;10481745;28;20051;-82
2022/12/09 01:32:33;;;;;;;1.58;0.98;;;;;;;1.51;100.00;101113.72;10481278;28;20044;-81
2022/12/09 01:37:36;;;;;;;2.72;0.88;;;;;;;1.62;100.00;101105.91;10477389;28;20044;-80
2022/12/09 01:42:38;;;;;;;0.73;0.73;;;;;;;1.64;100.00;101114.50;10481051;28;20053;-81
2022/12/09 01:47:40;;;;;;;0.70;0.68;;;;;;;1.06;100.00;101102.25;10481292;28;20811;-81
2022/12/09 01:52:43;;;;;;;0.57;0.22;;;;;;;1.34;100.00;101109.16;10475629;28;20040;-81
2022/12/09 01:57:45;;;;;;;1.10;0.63;;;;;;;1.26;100.00;101107.00;10479158;28;20127;-81
2022/12/09 02:02:49;;;;;;;5.28;1.67;;;;;;;1.32;100.00;101110.72;10480948;28;20041;-81
2022/12/09 02:07:52;;;;;;;0.52;0.52;;;;;;;1.40;100.00;101109.56;10480969;28;20393;-81
2022/12/09 02:13:19;;;;;;;0.17;0.17;;;;;;;1.45;100.00;101107.34;10480645;28;20043;-81
2022/12/09 02:18:45;;;;;;;0.77;0.55;;;;;;;1.49;100.00;101109.31;10468235;28;20052;-81
2022/12/09 02:24:15;;;;;;;0.20;0.20;;;;;;;1.49;100.00;101097.47;10469001;28;20054;-81
2022/12/09 02:29:33;;;;;;;1.25;1.17;;;;;;;1.48;100.00;101093.19;10432992;28;20541;-81
2022/12/09 02:34:41;;;;;;;0.75;0.75;;;;;;;1.61;100.00;101104.13;10466278;28;20503;-80
2022/12/09 02:40:00;;;;;;;1.55;1.42;;;;;;;1.16;100.00;101099.53;10483533;28;20045;-81
2022/12/09 02:45:06;;;;;;;0.53;0.47;;;;;;;1.29;100.00;101105.44;10480705;28;20063;-82
2022/12/09 02:50:14;;;;;;;1.55;0.43;;;;;;;1.34;100.00;101109.16;10466070;28;20080;-82
2022/12/09 02:55:18;;;;;;;0.20;0.15;;;;;;;1.24;100.00;101102.59;10477890;28;20044;-82
2022/12/09 03:00:20;;;;;;;2.03;1.02;;;;;;;1.32;100.00;101105.63;10469698;28;20046;-82
2022/12/09 03:05:33;;;;;;;0.40;0.40;;;;;;;1.37;100.00;101106.84;10480821;28;20040;-81
2022/12/09 03:10:53;;;;;;;0.20;0.20;;;;;;;1.42;100.00;101096.19;10481436;28;20369;-82
2022/12/09 03:16:04;;;;;;;1.13;0.87;;;;;;;1.39;100.00;101097.66;10508574;28;20055;-82
2022/12/09 03:21:13;;;;;;;0.20;0.20;;;;;;;1.43;100.00;101097.09;10495136;28;20073;-82
2022/12/09 03:26:17;;;;;;;0.30;0.30;;;;;;;1.48;100.00;101103.34;10487758;28;20044;-81
2022/12/09 03:31:22;;;;;;;0.35;0.35;;;;;;;1.46;100.00;101109.09;10464577;28;20082;-81
2022/12/09 03:36:27;;;;;;;0.55;0.55;;;;;;;1.41;100.00;101097.00;10469217;28;20036;-81
2022/12/09 03:41:32;;;;;;;1.45;1.13;;;;;;;1.43;100.00;101084.41;10471179;28;20516;-81
2022/12/09 03:46:34;;;;;;;0.30;0.30;;;;;;;1.40;100.00;101084.19;10486046;28;20039;-81
2022/12/09 03:51:43;;;;;;;3.80;0.68;;;;;;;1.30;100.00;101070.00;10469033;28;20048;-81
2022/12/09 03:56:52;;;;;;;0.70;0.70;;;;;;;1.26;100.00;101068.91;10443018;28;20136;-81
2022/12/09 04:01:54;;;;;;;0.17;0.15;;;;;;;1.21;100.00;101069.38;10473608;28;20044;-81
2022/12/09 04:06:56;;;;;;;1.00;0.90;;;;;;;1.12;100.00;101063.72;10481904;28;20044;-81
2022/12/09 04:11:58;;;;;;;0.50;0.50;;;;;;;1.06;100.00;101056.56;10498470;28;20473;-82
2022/12/09 04:16:59;;;;;;;0.70;0.68;;;;;;;1.13;100.00;101043.53;10471260;28;20053;-81
2022/12/09 04:22:03;;;;;;;0.65;0.57;;;;;;;1.22;100.00;101033.97;10484077;28;20068;-81
2022/12/09 04:27:05;;;;;;;1.30;0.57;;;;;;;1.20;100.00;101017.75;10475002;28;20069;-82
2022/12/09 04:32:07;;;;;;;1.02;0.93;;;;;;;1.21;100.00;101016.09;10480571;28;20049;-81
2022/12/09 04:37:10;;;;;;;2.60;1.17;;;;;;;1.18;100.00;101011.69;10476033;28;20051;-82
2022/12/09 04:42:12;;;;;;;0.00;0.00;;;;;;;1.21;100.00;100993.25;10486747;28;20033;-82
2022/12/09 04:47:13;;;;;;;0.95;0.95;;;;;;;1.27;100.00;100992.00;10483629;28;20048;-82
2022/12/09 04:52:16;;;;;;;1.73;1.38;;;;;;;1.22;100.00;100988.28;10470615;28;20052;-82
2022/12/09 04:57:23;;;;;;;1.52;1.13;;;;;;;1.24;100.00;100981.63;10483025;28;20488;-82
2022/12/09 05:02:25;;;;;;;1.58;1.48;;;;;;;1.31;100.00;100982.94;10469355;28;20124;-82
2022/12/09 05:07:29;;;;;;;0.98;0.90;;;;;;;1.34;100.00;100977.16;10495348;28;20488;-82
2022/12/09 05:12:32;;;;;;;2.90;1.73;;;;;;;1.15;100.00;100973.44;10470296;28;20053;-82
2022/12/09 05:17:34;;;;;;;0.98;0.98;;;;;;;1.24;100.00;100968.09;10475732;28;20048;-82
2022/12/09 05:22:36;;;;;;;1.27;1.17;;;;;;;1.28;100.00;100962.41;10482570;28;20049;-82
2022/12/09 05:27:38;;;;;;;0.75;0.40;;;;;;;1.31;100.00;100959.19;10479770;28;20044;-82
2022/12/09 05:32:40;;;;;;;0.40;0.40;;;;;;;1.27;100.00;100946.31;10475196;28;20040;-82
2022/12/09 05:37:42;;;;;;;8.30;1.38;;;;;;;1.29;100.00;100928.63;10472799;28;20159;-82
2022/12/09 05:42:44;;;;;;;0.10;0.10;;;;;;;1.36;100.00;100929.91;10455163;28;20048;-82
2022/12/09 05:47:46;;;;;;;0.35;0.17;;;;;;;1.36;100.00;100927.38;10527566;28;20063;-82
2022/12/09 05:52:48;;;;;;;1.10;0.55;;;;;;;1.41;100.00;100919.28;10488885;28;20484;-82
2022/12/09 05:57:50;;;;;;;0.45;0.45;;;;;;;1.26;100.00;100924.25;10479923;28;20139;-82
2022/12/09 06:02:52;;;;;;;0.52;0.52;;;;;;;1.08;100.00;100923.09;10488407;28;20084;-82
2022/12/09 06:07:57;;;;;;;0.88;0.88;;;;;;;1.31;100.00;100929.63;10482032;28;20071;-81
2022/12/09 06:13:31;;;;;;;0.60;0.60;;;;;;;1.29;100.00;100927.78;10483328;28;20048;-81
2022/12/09 06:18:35;;;;;;;0.00;0.00;;;;;;;1.35;100.00;100933.22;10475233;28;20052;-81
2022/12/09 06:23:41;;;;;;;0.38;0.38;;;;;;;1.30;100.00;100929.53;10487752;28;20055;-82
2022/12/09 06:28:44;;;;;;;0.38;0.38;;;;;;;1.46;100.00;100932.22;10486112;28;20490;-82
2022/12/09 06:33:48;;;;;;;0.28;0.28;;;;;;;1.43;100.00;100932.06;10482495;28;20047;-82
2022/12/09 06:38:57;;;;;;;0.10;0.10;;;;;;;1.33;100.00;100932.25;10473089;28;20052;-82
2022/12/09 06:44:11;;;;;;;1.98;1.27;;;;;;;1.28;100.00;100916.72;10473484;28;20072;-82
2022/12/09 06:49:20;;;;;;;0.08;0.08;;;;;;;1.44;100.00;100918.59;10475963;28;20044;-82
2022/12/09 06:54:22;;;;;;;0.13;0.13;;;;;;;1.45;100.00;100920.34;10479305;28;20059;-82
2022/12/09 06:59:24;;;;;;;0.30;0.30;;;;;;;1.29;100.00;100917.63;10465604;28;20589;-82
2022/12/09 07:04:27;;;;;;;0.00;0.00;;;;;;;1.17;100.00;100923.66;10465648;28;20067;-82
2022/12/09 07:09:29;;;;;;;0.03;0.03;;;;;;;1.37;100.00;100936.75;10473284;28;20052;-82
2022/12/09 07:14:31;;;;;;;0.68;0.68;;;;;;;1.19;100.00;100942.41;10472101;28;20435;-82
2022/12/09 07:19:33;;;;;;;0.00;0.00;;;;;;;1.38;100.00;100943.56;10487323;28;20095;-82
2022/12/09 07:24:38;;;;;;;2.05;1.08;;;;;;;1.39;100.00;100940.25;10483780;28;20036;-82
2022/12/09 07:29:47;;;;;;;0.00;0.00;;;;;;;1.38;100.00;100941.03;10467507;28;20099;-83
2022/12/09 07:34:50;;;;;;;0.35;0.35;;;;;;;1.35;100.00;100943.38;10466534;28;20045;-82
2022/12/09 07:39:52;;;;;;;0.63;0.63;;;;;;;1.24;100.00;100961.34;10479178;28;20128;-82
2022/12/09 07:44:55;;;;;;;0.43;0.32;;;;;;;1.37;100.00;100962.13;10472990;28;20060;-83
2022/12/09 07:49:57;;;;;;;0.98;0.70;;;;;;;1.23;100.00;100964.66;10483028;28;20127;-83
2022/12/09 07:55:07;;;;;;;0.43;0.15;;;;;;;1.31;100.00;100970.22;10492439;28;20135;-82
2022/12/09 08:00:11;;;;;;;0.73;0.73;;;;;;;1.25;100.00;100973.25;10478542;28;20047;-82
2022/12/09 08:05:13;;;;;;;0.95;0.52;;;;;;;1.21;100.00;100975.47;10477733;28;20048;-82
2022/12/09 08:10:15;;;;;;;2.85;1.15;;;;;;;1.18;100.00;100986.31;10459323;28;20053;-82
2022/12/09 08:15:18;;;;;;;2.30;1.65;;;;;;;1.20;100.00;100994.91;10492965;28;20035;-82
2022/12/09 08:20:20;;;;;;;2.25;1.60;;;;;;;1.23;100.00;101000.19;10531805;28;20048;-82
2022/12/09 08:25:29;;;;;;;0.65;0.40;;;;;;;1.14;100.00;100994.53;10477507;28;20055;-82
2022/12/09 08:30:32;;;;;;;7.93;2.67;;;;;;;1.15;100.00;100997.94;10457184;28;20049;-82
2022/12/09 08:35:36;;;;;;;1.67;1.40;;;;;;;1.25;100.00;101001.16;10463642;28;20036;-82
2022/12/09 08:40:38;;;;;;;2.00;1.80;;;;;;;1.17;100.00;100999.78;10461757;28;20412;-82
2022/12/09 08:45:40;;;;;;;2.38;2.17;;;;;;;1.27;100.00;101001.25;10483503;28;20055;-82
2022/12/09 08:50:43;;;;;;;0.40;0.32;;;;;;;1.19;100.00;101005.84;10482864;28;20094;-81
2022/12/09 08:55:45;;;;;;;1.00;1.00;;;;;;;1.24;100.00;101011.22;10495006;28;20781;-82
2022/12/09 09:00:47;;;;;;;2.50;1.92;;;;;;;1.19;100.00;101003.31;10443046;28;20045;-83
2022/12/09 09:05:49;;;;;;;2.35;1.42;;;;;;;1.21;100.00;100996.69;10473926;28;20565;-83
2022/12/09 09:10:52;;;;;;;0.93;0.45;;;;;;;1.18;100.00;100995.59;10467019;28;20514;-83
2022/12/09 09:22:53;;;;;;;4.13;1.27;;;;;;;1.26;100.00;100980.09;10460418;28;20068;-83
2022/12/09 09:28:03;;;;;;;;;;;;;;;1.41;100.00;100957.34;10443357;28;20080;-84
2022/12/09 09:33:07;;;;;;;0.20;0.20;;;;;;;1.24;100.00;100943.56;10475915;28;19920;-88
2022/12/09 09:38:13;;;;;;;2.33;1.77;;;;;;;1.34;100.00;100928.94;10469093;28;20052;-88
2022/12/09 09:43:19;;;;;;;0.13;0.13;;;;;;;1.41;100.00;100918.38;10475329;28;20040;-87
2022/12/09 09:48:29;;;;;;;0.90;0.90;;;;;;;1.41;100.00;100903.16;10456939;28;20060;-88
2022/12/09 09:53:33;;;;;;;1.27;1.17;;;;;;;1.44;100.00;100877.97;10475614;28;20405;-88
2022/12/09 09:58:36;;;;;;;0.85;0.70;;;;;;;1.44;100.00;100847.50;10474461;28;20040;-88
2022/12/09 10:03:56;;;;;;;2.20;0.28;;;;;;;1.37;100.00;100827.59;10467964;28;20551;-89
2022/12/09 10:09:12;;;;;;;0.15;0.15;;;;;;;1.24;100.00;100826.81;10488259;28;20116;-87
2022/12/09 10:14:36;;;;;;;0.35;0.35;;;;;;;1.26;100.00;100825.25;10500294;28;20051;-88
2022/12/09 10:19:45;;;;;;;0.35;0.35;;;;;;;1.12;100.00;100803.22;10485943;28;20127;-88
2022/12/09 10:24:56;;;;;;;1.38;1.27;;;;;;;1.23;100.00;100801.34;10469566;28;20136;-88
2022/12/09 10:30:04;;;;;;;2.25;0.55;;;;;;;1.20;100.00;100807.13;10468399;28;20044;-88
2022/12/09 10:35:19;;;;;;;0.55;0.55;;;;;;;1.24;100.00;100798.91;10476993;28;20044;-88
2022/12/09 10:40:45;;;;;;;0.88;0.88;;;;;;;1.20;100.00;100802.03;10460668;28;20412;-82
2022/12/09 10:45:53;;;;;;;0.22;0.22;;;;;;;1.22;100.00;100800.47;10454125;28;20049;-82
2022/12/09 10:51:26;;;;;;;0.47;0.40;;;;;;;1.35;100.00;100783.47;10482124;28;20040;-82
2022/12/09 10:56:35;;;;;;;0.10;0.10;;;;;;;1.40;100.00;100789.69;10471280;28;20037;-82
2022/12/09 11:01:48;;;;;;;0.80;0.80;;;;;;;1.41;100.00;100791.44;10463468;28;20063;-82
2022/12/09 11:06:52;;;;;;;1.20;0.45;;;;;;;1.26;100.00;100782.09;10483588;28;20074;-82
2022/12/09 11:12:03;;;;;;;0.38;0.38;;;;;;;1.26;100.00;100787.19;10459589;28;20102;-82
2022/12/09 11:17:16;;;;;;;1.55;0.85;;;;;;;1.33;100.00;100785.00;10477385;28;20055;-82
2022/12/09 11:22:32;;;;;;;3.05;1.48;;;;;;;1.28;100.00;100769.50;10468087;28;20047;-83
2022/12/09 11:27:34;;;;;;;0.95;0.88;;;;;;;1.32;100.00;100762.94;10481518;28;20059;-82
2022/12/09 11:32:50;;;;;;;0.35;0.35;;;;;;;1.30;100.00;100759.47;10473476;28;20052;-82
2022/12/09 11:37:53;;;;;;;2.05;1.85;;;;;;;1.23;100.00;100755.66;10480747;28;20044;-83
2022/12/09 11:42:55;;;;;;;0.15;0.15;;;;;;;1.25;100.00;100754.97;10480115;28;20075;-83
2022/12/09 11:48:06;;;;;;;0.00;0.00;;;;;;;1.27;100.00;100753.41;10490357;28;20143;-82
2022/12/09 11:53:39;;;;;;;1.60;0.67;;;;;;;1.22;100.00;100753.91;10470748;28;20053;-82
2022/12/09 11:58:44;;;;;;;1.20;1.10;;;;;;;1.10;100.00;100743.88;10482826;28;20136;-83
2022/12/09 12:03:55;;;;;;;0.20;0.17;;;;;;;1.48;100.00;100742.78;10468079;28;20048;-82
2022/12/09 12:09:05;;;;;;;2.53;1.42;;;;;;;1.45;100.00;100747.72;10473706;28;20113;-82
2022/12/09 12:14:17;;;;;;;0.63;0.63;;;;;;;1.70;100.00;100744.06;10465230;28;20506;-82
2022/12/09 12:19:34;;;;;;;0.70;0.47;;;;;;;1.67;100.00;100731.22;10505831;28;20039;-84
2022/12/09 12:24:46;;;;;;;0.38;0.35;;;;;;;1.79;100.00;100719.22;10479105;28;20097;-82
2022/12/09 12:30:02;;;;;;;1.33;1.20;;;;;;;1.95;100.00;100709.94;10466466;28;20052;-82
2022/12/09 12:35:29;;;;;;;1.08;0.85;;;;;;;1.97;100.00;100713.47;10460771;28;20052;-82
2022/12/09 12:40:46;;;;;;;0.95;0.88;;;;;;;1.81;100.00;100702.41;10452717;28;20049;-82
2022/12/09 12:46:16;;;;;;;0.52;0.50;;;;;;;1.83;100.00;100698.28;10458182;28;20068;-82
2022/12/09 12:51:52;;;;;;;1.13;0.80;;;;;;;1.80;100.00;100690.50;10459170;28;20045;-82
2022/12/09 12:57:22;;;;;;;0.70;0.40;;;;;;;1.77;100.00;100680.13;10466156;28;20562;-82
2022/12/09 13:02:48;;;;;;;0.47;0.47;;;;;;;1.74;100.00;100685.06;10459067;28;20049;-83
2022/12/09 13:08:16;;;;;;;0.77;0.75;;;;;;;1.83;100.00;100680.50;10463365;28;20049;-83
2022/12/09 13:13:29;;;;;;;0.30;0.30;;;;;;;1.90;100.00;100672.44;10451507;28;20040;-83
2022/12/09 13:18:38;;;;;;;1.45;1.13;;;;;;;1.99;100.00;100671.19;10455857;28;20052;-82
2022/12/09 13:23:46;;;;;;;0.55;0.40;;;;;;;1.66;100.00;100671.03;10456706;28;20381;-82
2022/12/09 13:28:57;;;;;;;2.75;1.35;;;;;;;1.89;100.00;100668.16;10445131;28;20392;-82
2022/12/09 13:34:21;;;;;;;3.70;0.93;;;;;;;1.98;100.00;100674.53;10458236;28;20045;-82
2022/12/09 13:39:38;;;;;;;2.42;1.48;;;;;;;2.00;100.00;100688.22;10468826;28;20053;-82
2022/12/09 13:44:40;;;;;;;2.05;1.33;;;;;;;1.85;100.00;100672.97;10459517;28;20033;-82
2022/12/09 13:49:52;;;;;;;1.63;1.02;;;;;;;1.77;100.00;100664.03;10458360;28;20056;-82
2022/12/09 13:54:55;;;;;;;0.08;0.08;;;;;;;1.70;100.00;100667.88;10458822;28;20115;-82
2022/12/09 14:00:03;;;;;;;0.15;0.15;;;;;;;1.97;100.00;100662.63;10455268;28;20102;-82
2022/12/09 14:05:14;;;;;;;0.28;0.28;;;;;;;1.70;100.00;100657.72;10473104;28;20051;-83
2022/12/09 14:10:43;;;;;;;1.55;1.15;;;;;;;1.81;100.00;100659.22;10438400;28;20071;-82
2022/12/09 14:15:47;;;;;;;0.40;0.40;;;;;;;1.68;100.00;100659.28;10467350;28;20056;-82
2022/12/09 14:21:17;;;;;;;0.75;0.32;;;;;;;1.46;100.00;100668.19;10452589;28;20044;-83
2022/12/09 14:26:37;;;;;;;0.35;0.35;;;;;;;1.58;100.00;100668.94;10471819;28;20041;-84
2022/12/09 14:31:49;;;;;;;0.93;0.57;;;;;;;1.62;100.00;100666.56;10457887;28;20087;-83
2022/12/09 14:37:29;;;;;;;1.00;0.57;;;;;;;1.70;100.00;100670.41;10457058;28;20091;-83
2022/12/09 14:42:58;;;;;;;3.70;2.00;;;;;;;1.72;100.00;100668.84;10448979;28;20056;-83
2022/12/09 14:48:06;;;;;;;1.75;0.65;;;;;;;1.67;100.00;100680.41;10467019;28;20041;-82
2022/12/09 14:53:22;;;;;;;1.25;1.15;;;;;;;1.57;100.00;100692.56;10474514;28;20029;-83
2022/12/09 14:58:25;;;;;;;0.52;0.52;;;;;;;1.53;100.00;100685.53;10489952;28;20040;-82
2022/12/09 15:03:28;;;;;;;3.10;0.95;;;;;;;1.49;100.00;100693.78;10503532;28;20106;-82
2022/12/09 15:08:44;;;;;;;0.10;0.08;;;;;;;1.47;100.00;100695.34;10475375;28;20553;-81
2022/12/09 15:13:50;;;;;;;0.43;0.43;;;;;;;1.36;100.00;100694.69;10474751;28;20060;-82
2022/12/09 15:18:53;;;;;;;0.63;0.40;;;;;;;1.39;100.00;100688.91;10449418;28;20049;-82
2022/12/09 15:23:56;;;;;;;0.70;0.57;;;;;;;1.37;100.00;100686.31;10442933;28;20103;-81
2022/12/09 15:28:59;;;;;;;0.35;0.30;;;;;;;1.33;100.00;100693.63;10482162;28;20043;-82
2022/12/09 15:34:14;;;;;;;0.00;0.00;;;;;;;1.31;100.00;100700.28;10479154;28;20049;-81
2022/12/09 15:39:48;;;;;;;0.00;0.00;;;;;;;1.18;100.00;100702.09;10484477;28;20036;-81
2022/12/09 15:44:57;;;;;;;0.35;0.35;;;;;;;1.23;100.00;100704.91;10472265;28;20052;-90
2022/12/09 15:50:13;;;;;;;0.00;0.00;;;;;;;1.20;100.00;100717.41;10469585;28;20083;-87
2022/12/09 15:55:19;;;;;;;0.22;0.22;;;;;;;1.07;100.00;100723.41;10483892;28;20051;-88
2022/12/09 16:00:21;;;;;;;3.85;2.63;;;;;;;0.94;100.00;100732.78;10485958;28;20068;-88
2022/12/09 16:05:24;;;;;;;0.85;0.85;;;;;;;1.07;100.00;100738.63;10502168;28;20089;-88
2022/12/09 16:10:28;;;;;;;0.85;0.85;;;;;;;1.00;100.00;100749.19;10472650;28;20057;-88
2022/12/09 16:15:51;;;;;;;0.22;0.22;;;;;;;1.11;100.00;100765.94;10472480;28;20037;-89
2022/12/09 16:21:00;;;;;;;0.03;0.03;;;;;;;0.90;100.00;100770.53;10471411;28;20053;-88
2022/12/09 16:26:02;;;;;;;0.40;0.40;;;;;;;0.67;100.00;100797.00;10473781;28;20411;-88
2022/12/09 16:31:17;;;;;;;0.10;0.10;;;;;;;0.71;100.00;100804.91;10451559;28;20041;-90
2022/12/09 16:36:24;;;;;;;0.57;0.32;;;;;;;0.66;100.00;100820.59;10457670;28;20069;-89
2022/12/09 16:41:51;;;;;;;0.93;0.57;;;;;;;0.73;100.00;100822.75;10473661;28;20047;-89
2022/12/09 16:47:15;;;;;;;0.25;0.25;;;;;;;0.79;100.00;100826.56;10473515;28;20045;-89
2022/12/09 16:52:21;;;;;;;0.82;0.82;;;;;;;0.84;100.00;100815.81;10451333;28;20103;-89
2022/12/09 16:57:23;;;;;;;0.43;0.43;;;;;;;0.95;100.00;100809.78;10463324;28;20036;-89
2022/12/09 17:02:32;;;;;;;0.25;0.25;;;;;;;0.92;100.00;100795.25;10476905;28;20095;-89
2022/12/09 17:07:34;;;;;;;0.30;0.22;;;;;;;1.04;100.00;100799.31;10469906;28;20128;-89
2022/12/09 17:12:36;;;;;;;0.05;0.05;;;;;;;0.93;100.00;100812.19;10480082;28;20052;-89
2022/12/09 17:17:38;;;;;;;0.47;0.45;;;;;;;1.00;100.00;100816.00;10452233;28;20564;-89
2022/12/09 17:22:45;;;;;;;0.22;0.22;;;;;;;0.89;100.00;100815.34;10454485;28;20072;-89
2022/12/09 17:27:47;;;;;;;0.75;0.55;;;;;;;0.91;100.00;100816.31;10488461;28;20049;-89
2022/12/09 17:32:49;;;;;;;0.63;0.63;;;;;;;0.75;100.00;100821.19;10513615;28;20043;-89
2022/12/09 17:37:53;;;;;;;0.88;0.88;;;;;;;0.85;100.00;100813.41;10506156;28;20110;-89
2022/12/09 17:42:54;;;;;;;0.60;0.60;;;;;;;0.73;100.00;100810.97;10494606;28;20048;-89
2022/12/09 17:47:56;;;;;;;0.00;0.00;;;;;;;0.67;100.00;100807.13;10484812;28;20066;-89
2022/12/09 17:52:58;;;;;;;0.50;0.43;;;;;;;0.53;100.00;100799.53;10493922;28;20090;-89
2022/12/09 17:57:59;;;;;;;0.57;0.57;;;;;;;0.74;100.00;100783.94;10478060;28;20490;-89
2022/12/09 18:03:01;;;;;;;1.10;1.05;;;;;;;0.71;100.00;100759.25;10480492;28;20052;-89
2022/12/09 18:08:04;;;;;;;2.55;2.28;;;;;;;0.34;100.00;100758.53;10471433;28;20036;-89
2022/12/09 18:13:05;;;;;;;0.75;0.65;;;;;;;0.13;100.00;100767.41;10487851;28;20036;-89
2022/12/09 18:18:07;;;;;;;0.75;0.68;;;;;;;0.17;100.00;100754.91;10467841;28;20049;-89
2022/12/09 18:23:10;;;;;;;0.00;0.00;;;;;;;-0.31;100.00;100760.25;10465909;28;20053;-89
2022/12/09 18:28:12;;;;;;;2.70;1.88;;;;;;;-0.40;100.00;100767.22;10472412;28;20041;-89
2022/12/09 18:33:15;;;;;;;3.28;1.65;;;;;;;-0.33;100.00;100774.47;10463244;28;20045;-88
2022/12/09 18:38:17;;;;;;;1.77;1.67;;;;;;;-0.36;100.00;100770.06;10478235;28;20114;-88
2022/12/09 18:43:18;;;;;;;0.88;0.88;;;;;;;-0.33;100.00;100775.31;10482841;28;20048;-88
2022/12/09 18:48:20;;;;;;;0.60;0.60;;;;;;;-0.48;100.00;100774.28;10483542;28;20486;-88
2022/12/09 18:53:22;;;;;;;0.80;0.80;;;;;;;-0.48;100.00;100784.41;10475818;28;20056;-87
2022/12/09 18:58:24;;;;;;;1.23;0.75;;;;;;;-0.54;100.00;100792.47;10473000;28;20055;-87
2022/12/09 19:03:47;;;;;;;0.30;0.30;;;;;;;-0.52;100.00;100780.78;10482431;28;20540;-87
2022/12/09 19:08:53;;;;;;;0.32;0.32;;;;;;;-0.98;100.00;100790.25;10479400;28;20143;-86
2022/12/09 19:13:55;;;;;;;0.10;0.10;;;;;;;-1.47;100.00;100792.69;10482950;28;20044;-86
2022/12/09 19:18:58;;;;;;;0.40;0.40;;;;;;;-1.23;100.00;100807.88;10484227;28;20086;-87
2022/12/09 19:24:16;;;;;;;1.25;0.90;;;;;;;-1.42;100.00;100810.72;10468532;28;20071;-86
2022/12/09 19:29:19;;;;;;;0.00;0.00;;;;;;;-1.66;100.00;100823.31;10468444;28;20458;-86
2022/12/09 19:34:27;;;;;;;2.88;1.27;;;;;;;-1.66;100.00;100849.44;10490684;28;20560;-86
2022/12/09 19:39:30;;;;;;;0.95;0.95;;;;;;;-1.69;100.00;100859.34;10478232;28;20061;-86
2022/12/09 19:44:32;;;;;;;0.30;0.25;;;;;;;-1.79;100.00;100869.50;10519684;28;20041;-85
2022/12/09 19:49:53;;;;;;;0.00;0.00;;;;;;;-1.87;100.00;100885.72;10540325;28;20040;-85
2022/12/09 19:54:55;;;;;;;0.55;0.55;;;;;;;-1.91;100.00;100892.19;10490440;28;20075;-85
2022/12/09 19:59:57;;;;;;;0.52;0.52;;;;;;;-1.68;100.00;100901.53;10473488;28;20056;-85
2022/12/09 20:04:58;;;;;;;0.85;0.68;;;;;;;-1.98;100.00;100897.53;10458558;28;20040;-86
2022/12/09 20:10:00;;;;;;;0.40;0.40;;;;;;;-2.26;100.00;100910.56;10487143;28;20041;-86
2022/12/09 20:15:05;;;;;;;0.90;0.52;;;;;;;-2.37;100.00;100911.38;10491799;28;20048;-86
2022/12/09 20:20:09;;;;;;;3.65;0.85;;;;;;;-2.47;100.00;100920.75;10475873;28;20045;-86
2022/12/09 20:25:11;;;;;;;0.00;0.00;;;;;;;-2.79;100.00;100935.88;10454604;28;20045;-82
2022/12/09 20:30:12;;;;;;;0.60;0.60;;;;;;;-2.76;100.00;100942.03;10466832;28;20049;-82
2022/12/09 20:35:14;;;;;;;1.67;1.08;;;;;;;-2.66;100.00;100952.84;10444703;28;20045;-82
2022/12/09 20:40:16;;;;;;;0.25;0.20;;;;;;;-2.56;100.00;100951.16;10467874;28;20514;-82
2022/12/09 20:45:18;;;;;;;0.85;0.85;;;;;;;-2.66;100.00;100957.88;10474566;28;20045;-82
2022/12/09 20:50:20;;;;;;;0.10;0.10;;;;;;;-2.64;100.00;100969.84;10469124;28;20048;-82
2022/12/09 20:55:21;;;;;;;0.10;0.10;;;;;;;-2.98;100.00;100968.81;10477407;28;20394;-82
2022/12/09 21:00:23;;;;;;;0.00;0.00;;;;;;;-2.93;100.00;100975.97;10462387;28;20053;-82
2022/12/09 21:05:24;;;;;;;0.57;0.57;;;;;;;-3.00;100.00;100980.41;10470043;28;20098;-82
2022/12/09 21:10:26;;;;;;;0.10;0.10;;;;;;;-3.07;100.00;100979.00;10488160;28;20052;-82
2022/12/09 21:15:28;;;;;;;4.95;0.52;;;;;;;-3.17;100.00;100984.94;10493392;28;20052;-82
2022/12/09 21:20:30;;;;;;;0.40;0.40;;;;;;;-3.20;100.00;100983.03;10480241;28;20094;-81
2022/12/09 21:25:32;;;;;;;1.20;1.10;;;;;;;-2.97;100.00;100989.09;10468502;28;20072;-82
2022/12/09 21:30:33;;;;;;;0.22;0.22;;;;;;;-3.21;100.00;100973.72;10472046;28;20048;-82
2022/12/09 21:35:36;;;;;;;0.70;0.68;;;;;;;-3.00;100.00;100985.44;10476539;28;20472;-82
2022/12/09 21:40:38;;;;;;;0.57;0.47;;;;;;;-3.34;100.00;100991.09;10496168;28;20044;-82
2022/12/09 21:45:40;;;;;;;0.20;0.20;;;;;;;-3.21;100.00;100996.41;10480065;28;20091;-82
2022/12/09 21:50:42;;;;;;;0.40;0.40;;;;;;;-3.25;100.00;101001.94;10456319;28;20049;-82
2022/12/09 21:55:44;;;;;;;0.77;0.70;;;;;;;-3.25;100.00;101059.91;10514106;28;20032;-82
2022/12/09 22:00:45;;;;;;;0.17;0.17;;;;;;;-3.29;100.00;101067.06;10475625;28;20048;-82
2022/12/09 22:05:48;;;;;;;0.40;0.40;;;;;;;-3.17;100.00;101077.31;10480814;28;20080;-81
2022/12/09 22:10:59;;;;;;;0.05;0.05;;;;;;;-3.29;100.00;101078.03;10437156;28;20045;-78
2022/12/09 22:16:06;;;;;;;0.98;0.85;;;;;;;-3.40;100.00;101073.72;10447178;28;20099;-78
2022/12/09 22:21:11;;;;;;;0.95;0.95;;;;;;;-3.55;100.00;101088.41;10447407;28;20056;-78
2022/12/09 22:26:30;;;;;;;1.00;0.93;;;;;;;-3.39;100.00;101083.94;10431013;28;20045;-78
2022/12/09 22:31:35;;;;;;;6.53;1.17;;;;;;;-3.51;100.00;101088.81;10445621;28;20091;-78
2022/12/09 22:36:39;;;;;;;0.10;0.10;;;;;;;-3.38;100.00;101102.44;10467071;28;20048;-78
2022/12/09 22:41:42;;;;;;;4.95;2.28;;;;;;;-3.70;100.00;101100.59;10479888;28;20408;-79
2022/12/09 22:46:44;;;;;;;0.15;0.13;;;;;;;-3.82;100.00;101101.28;10488027;28;20395;-78
2022/12/09 22:51:46;;;;;;;0.52;0.52;;;;;;;-3.86;100.00;101096.75;10494777;28;20045;-78
2022/12/09 22:56:48;;;;;;;1.08;1.02;;;;;;;-3.88;100.00;101092.31;10489167;28;20048;-77
2022/12/09 23:01:50;;;;;;;0.15;0.15;;;;;;;-4.05;100.00;101103.41;10493989;28;20040;-78
2022/12/09 23:06:52;;;;;;;4.45;4.07;;;;;;;-3.85;100.00;101113.63;10491771;28;20058;-79
2022/12/09 23:11:54;;;;;;;0.20;0.20;;;;;;;-4.05;100.00;101108.44;10492785;28;20094;-78
2022/12/09 23:16:56;;;;;;;0.20;0.20;;;;;;;-3.98;100.00;101105.72;10505322;28;20131;-78
2022/12/09 23:21:58;;;;;;;0.45;0.45;;;;;;;-3.91;100.00;101113.06;10507065;28;20050;-78
2022/12/09 23:27:20;;;;;;;1.33;1.23;;;;;;;-3.90;100.00;101107.28;10516035;28;20040;-77
2022/12/09 23:32:22;;;;;;;0.57;0.28;;;;;;;-4.15;100.00;101115.22;10500675;28;20049;-78